sensor_id;sensor_type;location;lat;lon;timestamp;pressure;altitude;pressure_sealevel;temperature;humidity
34205;BME280;20471;49.680;20.074;2023-04-03T00:01:26;97332.16;;;2.02;80.76
34205;BME280;20471;49.680;20.074;2023-04-03T00:03:55;97332.72;;;2.01;80.75
34205;BME280;20471;49.680;20.074;2023-04-03T00:06:23;97332.17;;;2.00;80.78
34205;BME280;20471;49.680;20.074;2023-04-03T00:08:52;97329.91;;;1.99;80.75
34205;BME280;20471;49.680;20.074;2023-04-03T00:11:21;97330.40;;;1.98;80.78
34205;BME280;20471;49.680;20.074;2023-04-03T00:13:49;97330.59;;;1.96;80.76
34205;BME280;20471;49.680;20.074;2023-04-03T00:16:17;97331.85;;;1.94;80.73
34205;BME280;20471;49.680;20.074;2023-04-03T00:18:45;97330.82;;;1.93;80.79
34205;BME280;20471;49.680;20.074;2023-04-03T00:21:13;97333.13;;;1.93;80.78
34205;BME280;20471;49.680;20.074;2023-04-03T00:23:42;97332.42;;;1.92;80.83
34205;BME280;20471;49.680;20.074;2023-04-03T00:26:10;97330.89;;;1.92;80.81
34205;BME280;20471;49.680;20.074;2023-04-03T00:28:39;97329.34;;;1.90;80.74
34205;BME280;20471;49.680;20.074;2023-04-03T00:31:07;97329.27;;;1.87;80.73
34205;BME280;20471;49.680;20.074;2023-04-03T00:33:35;97328.55;;;1.83;80.74
34205;BME280;20471;49.680;20.074;2023-04-03T00:36:10;97331.25;;;1.81;80.83
34205;BME280;20471;49.680;20.074;2023-04-03T00:38:39;97334.08;;;1.78;80.85
34205;BME280;20471;49.680;20.074;2023-04-03T00:41:08;97334.33;;;1.72;80.74
34205;BME280;20471;49.680;20.074;2023-04-03T00:43:36;97332.11;;;1.66;80.72
34205;BME280;20471;49.680;20.074;2023-04-03T00:46:04;97334.30;;;1.61;80.69
34205;BME280;20471;49.680;20.074;2023-04-03T00:48:36;97340.64;;;1.49;80.69
34205;BME280;20471;49.680;20.074;2023-04-03T00:51:08;97342.73;;;1.45;80.96
34205;BME280;20471;49.680;20.074;2023-04-03T00:53:50;97345.59;;;1.45;81.09
34205;BME280;20471;49.680;20.074;2023-04-03T00:56:21;97345.23;;;1.47;81.20
34205;BME280;20471;49.680;20.074;2023-04-03T00:58:55;97341.95;;;1.50;81.22
34205;BME280;20471;49.680;20.074;2023-04-03T01:01:28;97339.15;;;1.50;81.18
34205;BME280;20471;49.680;20.074;2023-04-03T01:03:59;97337.91;;;1.50;81.11
34205;BME280;20471;49.680;20.074;2023-04-03T01:06:31;97337.76;;;1.46;81.10
34205;BME280;20471;49.680;20.074;2023-04-03T01:09:00;97342.49;;;1.41;81.03
34205;BME280;20471;49.680;20.074;2023-04-03T01:11:29;97346.38;;;1.34;81.01
34205;BME280;20471;49.680;20.074;2023-04-03T01:13:57;97346.17;;;1.33;81.03
34205;BME280;20471;49.680;20.074;2023-04-03T01:16:25;97348.02;;;1.32;81.05
34205;BME280;20471;49.680;20.074;2023-04-03T01:18:54;97349.77;;;1.32;81.11
34205;BME280;20471;49.680;20.074;2023-04-03T01:24:27;97355.75;;;1.31;81.06
34205;BME280;20471;49.680;20.074;2023-04-03T01:27:00;97356.33;;;1.31;81.11
34205;BME280;20471;49.680;20.074;2023-04-03T01:29:29;97362.67;;;1.31;81.16
34205;BME280;20471;49.680;20.074;2023-04-03T01:31:59;97365.80;;;1.33;81.14
34205;BME280;20471;49.680;20.074;2023-04-03T01:34:28;97360.27;;;1.34;81.14
34205;BME280;20471;49.680;20.074;2023-04-03T01:39:30;97365.35;;;1.28;81.06
34205;BME280;20471;49.680;20.074;2023-04-03T01:41:58;97367.61;;;1.23;81.09
34205;BME280;20471;49.680;20.074;2023-04-03T01:44:27;97368.55;;;1.19;81.07
34205;BME280;20471;49.680;20.074;2023-04-03T01:46:55;97371.08;;;1.19;81.14
34205;BME280;20471;49.680;20.074;2023-04-03T01:49:23;97369.23;;;1.17;81.18
34205;BME280;20471;49.680;20.074;2023-04-03T01:51:51;97367.94;;;1.18;81.27
34205;BME280;20471;49.680;20.074;2023-04-03T01:54:19;97374.45;;;1.17;81.32
34205;BME280;20471;49.680;20.074;2023-04-03T01:56:47;97372.59;;;1.14;81.26
34205;BME280;20471;49.680;20.074;2023-04-03T01:59:15;97373.39;;;1.11;81.32
34205;BME280;20471;49.680;20.074;2023-04-03T02:01:44;97373.30;;;1.08;81.34
34205;BME280;20471;49.680;20.074;2023-04-03T02:04:12;97370.89;;;1.02;81.36
34205;BME280;20471;49.680;20.074;2023-04-03T02:06:40;97375.05;;;0.99;81.30
34205;BME280;20471;49.680;20.074;2023-04-03T02:09:08;97380.67;;;0.97;81.50
34205;BME280;20471;49.680;20.074;2023-04-03T02:11:37;97379.64;;;0.91;81.51
34205;BME280;20471;49.680;20.074;2023-04-03T02:14:05;97380.55;;;0.87;81.72
34205;BME280;20471;49.680;20.074;2023-04-03T02:16:33;97379.83;;;0.86;81.77
34205;BME280;20471;49.680;20.074;2023-04-03T02:19:01;97384.98;;;0.84;81.83
34205;BME280;20471;49.680;20.074;2023-04-03T02:21:29;97385.57;;;0.80;81.90
34205;BME280;20471;49.680;20.074;2023-04-03T02:23:57;97387.17;;;0.76;81.90
34205;BME280;20471;49.680;20.074;2023-04-03T02:26:25;97386.68;;;0.74;81.99
34205;BME280;20471;49.680;20.074;2023-04-03T02:28:53;97389.97;;;0.71;81.93
34205;BME280;20471;49.680;20.074;2023-04-03T02:31:21;97389.01;;;0.68;82.05
34205;BME280;20471;49.680;20.074;2023-04-03T02:33:50;97392.27;;;0.66;82.11
34205;BME280;20471;49.680;20.074;2023-04-03T02:36:18;97393.77;;;0.66;82.15
34205;BME280;20471;49.680;20.074;2023-04-03T02:38:47;97391.17;;;0.66;82.09
34205;BME280;20471;49.680;20.074;2023-04-03T02:41:15;97392.63;;;0.65;82.08
34205;BME280;20471;49.680;20.074;2023-04-03T02:43:43;97393.27;;;0.66;82.16
34205;BME280;20471;49.680;20.074;2023-04-03T02:46:11;97395.23;;;0.62;82.13
34205;BME280;20471;49.680;20.074;2023-04-03T02:48:41;97391.33;;;0.62;82.16
34205;BME280;20471;49.680;20.074;2023-04-03T02:51:09;97390.47;;;0.66;82.18
34205;BME280;20471;49.680;20.074;2023-04-03T02:53:37;97395.25;;;0.68;82.18
34205;BME280;20471;49.680;20.074;2023-04-03T02:56:05;97395.33;;;0.69;82.11
34205;BME280;20471;49.680;20.074;2023-04-03T02:58:34;97401.22;;;0.70;82.04
34205;BME280;20471;49.680;20.074;2023-04-03T03:01:02;97399.84;;;0.70;82.05
34205;BME280;20471;49.680;20.074;2023-04-03T03:03:30;97397.89;;;0.70;82.07
34205;BME280;20471;49.680;20.074;2023-04-03T03:06:08;97399.68;;;0.69;82.00
34205;BME280;20471;49.680;20.074;2023-04-03T03:08:37;97405.65;;;0.68;81.88
34205;BME280;20471;49.680;20.074;2023-04-03T03:11:06;97409.69;;;0.65;81.82
34205;BME280;20471;49.680;20.074;2023-04-03T03:13:34;97408.32;;;0.55;81.94
34205;BME280;20471;49.680;20.074;2023-04-03T03:16:03;97408.54;;;0.50;82.06
34205;BME280;20471;49.680;20.074;2023-04-03T03:18:32;97412.23;;;0.46;82.06
34205;BME280;20471;49.680;20.074;2023-04-03T03:21:01;97416.20;;;0.44;82.08
34205;BME280;20471;49.680;20.074;2023-04-03T03:23:31;97414.91;;;0.41;82.08
34205;BME280;20471;49.680;20.074;2023-04-03T03:26:05;97411.11;;;0.36;82.14
34205;BME280;20471;49.680;20.074;2023-04-03T03:28:34;97407.05;;;0.34;82.19
34205;BME280;20471;49.680;20.074;2023-04-03T03:31:03;97411.75;;;0.36;82.37
34205;BME280;20471;49.680;20.074;2023-04-03T03:33:55;97409.55;;;0.39;82.42
34205;BME280;20471;49.680;20.074;2023-04-03T03:36:24;97412.17;;;0.40;82.51
34205;BME280;20471;49.680;20.074;2023-04-03T03:38:52;97413.77;;;0.43;82.45
34205;BME280;20471;49.680;20.074;2023-04-03T03:41:20;97413.62;;;0.45;82.40
34205;BME280;20471;49.680;20.074;2023-04-03T03:43:48;97413.61;;;0.47;82.38
34205;BME280;20471;49.680;20.074;2023-04-03T03:46:16;97418.42;;;0.48;82.28
34205;BME280;20471;49.680;20.074;2023-04-03T03:48:44;97423.26;;;0.40;81.98
34205;BME280;20471;49.680;20.074;2023-04-03T03:51:12;97423.52;;;0.32;82.06
34205;BME280;20471;49.680;20.074;2023-04-03T03:53:40;97420.62;;;0.33;82.26
34205;BME280;20471;49.680;20.074;2023-04-03T03:56:08;97423.20;;;0.35;82.21
34205;BME280;20471;49.680;20.074;2023-04-03T03:58:37;97421.38;;;0.38;82.17
34205;BME280;20471;49.680;20.074;2023-04-03T04:01:06;97421.70;;;0.40;82.19
34205;BME280;20471;49.680;20.074;2023-04-03T04:03:34;97426.33;;;0.43;82.22
34205;BME280;20471;49.680;20.074;2023-04-03T04:06:03;97426.84;;;0.46;82.22
34205;BME280;20471;49.680;20.074;2023-04-03T04:08:31;97425.20;;;0.48;82.22
34205;BME280;20471;49.680;20.074;2023-04-03T04:10:59;97425.98;;;0.49;82.19
34205;BME280;20471;49.680;20.074;2023-04-03T04:13:27;97422.02;;;0.48;82.21
34205;BME280;20471;49.680;20.074;2023-04-03T04:15:56;97426.69;;;0.39;81.96
34205;BME280;20471;49.680;20.074;2023-04-03T04:18:24;97432.33;;;0.30;81.93
34205;BME280;20471;49.680;20.074;2023-04-03T04:20:52;97437.89;;;0.29;82.15
34205;BME280;20471;49.680;20.074;2023-04-03T04:23:20;97437.95;;;0.31;82.17
34205;BME280;20471;49.680;20.074;2023-04-03T04:25:49;97438.06;;;0.28;82.18
34205;BME280;20471;49.680;20.074;2023-04-03T04:28:18;97444.95;;;0.24;82.21
34205;BME280;20471;49.680;20.074;2023-04-03T04:30:46;97446.98;;;0.24;82.27
34205;BME280;20471;49.680;20.074;2023-04-03T04:33:14;97447.04;;;0.23;82.20
34205;BME280;20471;49.680;20.074;2023-04-03T04:35:43;97449.30;;;0.21;82.26
34205;BME280;20471;49.680;20.074;2023-04-03T04:38:11;97449.11;;;0.20;82.22
34205;BME280;20471;49.680;20.074;2023-04-03T04:40:39;97451.38;;;0.22;82.31
34205;BME280;20471;49.680;20.074;2023-04-03T04:43:08;97456.48;;;0.22;82.31
34205;BME280;20471;49.680;20.074;2023-04-03T04:45:37;97453.92;;;0.19;82.30
34205;BME280;20471;49.680;20.074;2023-04-03T04:48:05;97457.39;;;0.20;82.28
34205;BME280;20471;49.680;20.074;2023-04-03T04:50:33;97456.96;;;0.21;82.23
34205;BME280;20471;49.680;20.074;2023-04-03T04:53:01;97461.55;;;0.21;82.24
34205;BME280;20471;49.680;20.074;2023-04-03T04:55:30;97466.16;;;0.19;82.25
34205;BME280;20471;49.680;20.074;2023-04-03T04:57:58;97464.27;;;0.21;82.18
34205;BME280;20471;49.680;20.074;2023-04-03T05:00:27;97464.34;;;0.22;82.09
34205;BME280;20471;49.680;20.074;2023-04-03T05:02:55;97469.94;;;0.20;82.16
34205;BME280;20471;49.680;20.074;2023-04-03T05:05:23;97467.21;;;0.23;82.17
34205;BME280;20471;49.680;20.074;2023-04-03T05:07:51;97463.98;;;0.20;82.14
34205;BME280;20471;49.680;20.074;2023-04-03T05:10:19;97468.42;;;0.20;82.04
34205;BME280;20471;49.680;20.074;2023-04-03T05:12:47;97470.77;;;0.23;82.10
34205;BME280;20471;49.680;20.074;2023-04-03T05:15:15;97476.98;;;0.23;82.14
34205;BME280;20471;49.680;20.074;2023-04-03T05:17:43;97482.82;;;0.19;82.07
34205;BME280;20471;49.680;20.074;2023-04-03T05:20:12;97476.28;;;0.15;81.94
34205;BME280;20471;49.680;20.074;2023-04-03T05:22:40;97482.65;;;0.13;81.93
34205;BME280;20471;49.680;20.074;2023-04-03T05:25:08;97486.23;;;0.13;81.97
34205;BME280;20471;49.680;20.074;2023-04-03T05:27:37;97487.29;;;0.15;81.82
34205;BME280;20471;49.680;20.074;2023-04-03T05:30:05;97489.19;;;0.15;81.62
34205;BME280;20471;49.680;20.074;2023-04-03T05:32:34;97491.40;;;0.16;81.77
34205;BME280;20471;49.680;20.074;2023-04-03T05:35:02;97489.35;;;0.17;81.86
34205;BME280;20471;49.680;20.074;2023-04-03T05:37:30;97487.95;;;0.19;81.72
34205;BME280;20471;49.680;20.074;2023-04-03T05:39:58;97490.77;;;0.23;81.73
34205;BME280;20471;49.680;20.074;2023-04-03T05:42:27;97483.58;;;0.22;81.53
34205;BME280;20471;49.680;20.074;2023-04-03T05:44:55;97485.80;;;0.15;81.35
34205;BME280;20471;49.680;20.074;2023-04-03T05:47:23;97487.10;;;0.13;81.39
34205;BME280;20471;49.680;20.074;2023-04-03T05:49:52;97490.02;;;0.14;81.53
34205;BME280;20471;49.680;20.074;2023-04-03T05:52:31;97490.80;;;0.13;81.71
34205;BME280;20471;49.680;20.074;2023-04-03T05:55:01;97492.70;;;0.12;81.76
34205;BME280;20471;49.680;20.074;2023-04-03T05:57:29;97495.09;;;0.07;81.59
34205;BME280;20471;49.680;20.074;2023-04-03T05:59:57;97498.17;;;0.03;81.60
34205;BME280;20471;49.680;20.074;2023-04-03T06:02:25;97499.40;;;-0.01;81.59
34205;BME280;20471;49.680;20.074;2023-04-03T06:04:53;97506.35;;;-0.07;81.50
34205;BME280;20471;49.680;20.074;2023-04-03T06:07:23;97506.98;;;-0.14;81.48
34205;BME280;20471;49.680;20.074;2023-04-03T06:09:56;97515.36;;;-0.20;81.47
34205;BME280;20471;49.680;20.074;2023-04-03T06:12:24;97515.83;;;-0.21;81.58
34205;BME280;20471;49.680;20.074;2023-04-03T06:14:52;97513.23;;;-0.18;81.52
34205;BME280;20471;49.680;20.074;2023-04-03T06:17:21;97510.50;;;-0.19;81.31
34205;BME280;20471;49.680;20.074;2023-04-03T06:19:49;97520.04;;;-0.27;81.32
34205;BME280;20471;49.680;20.074;2023-04-03T06:22:17;97518.30;;;-0.29;81.36
34205;BME280;20471;49.680;20.074;2023-04-03T06:24:46;97521.27;;;-0.30;81.38
34205;BME280;20471;49.680;20.074;2023-04-03T06:27:14;97521.88;;;-0.33;81.32
34205;BME280;20471;49.680;20.074;2023-04-03T06:29:43;97524.56;;;-0.32;81.35
34205;BME280;20471;49.680;20.074;2023-04-03T06:32:11;97525.13;;;-0.30;81.23
34205;BME280;20471;49.680;20.074;2023-04-03T06:34:40;97532.42;;;-0.23;81.49
34205;BME280;20471;49.680;20.074;2023-04-03T06:37:19;97528.79;;;-0.20;81.44
34205;BME280;20471;49.680;20.074;2023-04-03T06:39:48;97534.27;;;-0.25;81.33
34205;BME280;20471;49.680;20.074;2023-04-03T06:42:16;97533.87;;;-0.27;81.42
34205;BME280;20471;49.680;20.074;2023-04-03T06:44:44;97535.06;;;-0.25;81.35
34205;BME280;20471;49.680;20.074;2023-04-03T06:47:14;97536.98;;;-0.22;81.21
34205;BME280;20471;49.680;20.074;2023-04-03T06:49:42;97540.29;;;-0.16;81.15
34205;BME280;20471;49.680;20.074;2023-04-03T06:52:11;97543.84;;;-0.09;81.13
34205;BME280;20471;49.680;20.074;2023-04-03T06:54:40;97543.38;;;-0.10;80.96
34205;BME280;20471;49.680;20.074;2023-04-03T06:57:08;97546.17;;;-0.09;80.94
34205;BME280;20471;49.680;20.074;2023-04-03T06:59:36;97549.22;;;-0.10;81.09
34205;BME280;20471;49.680;20.074;2023-04-03T07:02:04;97549.20;;;-0.08;81.34
34205;BME280;20471;49.680;20.074;2023-04-03T07:04:33;97552.38;;;-0.02;81.49
34205;BME280;20471;49.680;20.074;2023-04-03T07:07:01;97554.04;;;0.01;81.37
34205;BME280;20471;49.680;20.074;2023-04-03T07:09:29;97560.89;;;-0.02;81.20
34205;BME280;20471;49.680;20.074;2023-04-03T07:11:57;97565.48;;;0.02;81.32
34205;BME280;20471;49.680;20.074;2023-04-03T07:14:25;97565.97;;;0.08;81.31
34205;BME280;20471;49.680;20.074;2023-04-03T07:16:54;97569.19;;;0.10;81.22
34205;BME280;20471;49.680;20.074;2023-04-03T07:19:22;97571.77;;;0.12;81.11
34205;BME280;20471;49.680;20.074;2023-04-03T07:21:51;97572.85;;;0.20;80.97
34205;BME280;20471;49.680;20.074;2023-04-03T07:24:19;97573.55;;;0.25;80.87
34205;BME280;20471;49.680;20.074;2023-04-03T07:33:35;97588.25;;;0.33;80.09
34205;BME280;20471;49.680;20.074;2023-04-03T07:36:05;97594.20;;;0.27;80.03
34205;BME280;20471;49.680;20.074;2023-04-03T07:38:34;97595.55;;;0.28;79.97
34205;BME280;20471;49.680;20.074;2023-04-03T07:41:03;97597.55;;;0.27;79.77
34205;BME280;20471;49.680;20.074;2023-04-03T07:43:32;97601.70;;;0.27;79.75
34205;BME280;20471;49.680;20.074;2023-04-03T07:46:01;97605.50;;;0.30;79.89
34205;BME280;20471;49.680;20.074;2023-04-03T07:48:29;97606.25;;;0.33;79.76
34205;BME280;20471;49.680;20.074;2023-04-03T07:51:01;97609.91;;;0.36;79.75
34205;BME280;20471;49.680;20.074;2023-04-03T07:53:30;97611.82;;;0.26;79.46
34205;BME280;20471;49.680;20.074;2023-04-03T07:55:59;97610.35;;;0.18;79.36
34205;BME280;20471;49.680;20.074;2023-04-03T07:58:29;97611.81;;;0.17;79.47
34205;BME280;20471;49.680;20.074;2023-04-03T08:00:57;97607.68;;;0.25;79.59
34205;BME280;20471;49.680;20.074;2023-04-03T08:03:26;97612.88;;;0.30;79.32
34205;BME280;20471;49.680;20.074;2023-04-03T08:05:54;97610.55;;;0.29;79.33
34205;BME280;20471;49.680;20.074;2023-04-03T08:08:23;97611.23;;;0.37;79.42
34205;BME280;20471;49.680;20.074;2023-04-03T08:10:52;97611.25;;;0.46;79.24
34205;BME280;20471;49.680;20.074;2023-04-03T08:13:22;97613.50;;;0.50;79.08
34205;BME280;20471;49.680;20.074;2023-04-03T08:15:50;97622.80;;;0.51;78.91
34205;BME280;20471;49.680;20.074;2023-04-03T08:18:18;97625.37;;;0.45;78.77
34205;BME280;20471;49.680;20.074;2023-04-03T08:20:51;97624.90;;;0.38;78.62
34205;BME280;20471;49.680;20.074;2023-04-03T08:23:19;97629.92;;;0.36;78.69
34205;BME280;20471;49.680;20.074;2023-04-03T08:25:47;97636.73;;;0.31;78.61
34205;BME280;20471;49.680;20.074;2023-04-03T08:28:15;97635.63;;;0.33;78.57
34205;BME280;20471;49.680;20.074;2023-04-03T08:30:44;97634.80;;;0.39;78.44
34205;BME280;20471;49.680;20.074;2023-04-03T08:33:12;97633.23;;;0.38;78.03
34205;BME280;20471;49.680;20.074;2023-04-03T08:35:42;97633.54;;;0.33;77.91
34205;BME280;20471;49.680;20.074;2023-04-03T08:38:10;97636.01;;;0.37;78.07
34205;BME280;20471;49.680;20.074;2023-04-03T08:40:39;97638.67;;;0.46;78.28
34205;BME280;20471;49.680;20.074;2023-04-03T08:43:30;97642.58;;;0.54;78.25
34205;BME280;20471;49.680;20.074;2023-04-03T08:46:05;97646.80;;;0.63;78.43
34205;BME280;20471;49.680;20.074;2023-04-03T08:48:36;97648.39;;;0.69;78.25
34205;BME280;20471;49.680;20.074;2023-04-03T08:51:19;97650.13;;;0.66;77.94
34205;BME280;20471;49.680;20.074;2023-04-03T08:54:06;97649.73;;;0.72;78.24
34205;BME280;20471;49.680;20.074;2023-04-03T08:56:42;97651.66;;;0.78;78.33
34205;BME280;20471;49.680;20.074;2023-04-03T08:59:14;97650.93;;;0.89;78.38
34205;BME280;20471;49.680;20.074;2023-04-03T09:01:45;97652.37;;;1.02;78.24
34205;BME280;20471;49.680;20.074;2023-04-03T09:04:15;97656.44;;;1.11;77.76
34205;BME280;20471;49.680;20.074;2023-04-03T09:06:54;97658.44;;;1.01;77.33
34205;BME280;20471;49.680;20.074;2023-04-03T09:09:36;97657.10;;;0.95;77.43
34205;BME280;20471;49.680;20.074;2023-04-03T09:12:33;97662.24;;;0.95;77.40
34205;BME280;20471;49.680;20.074;2023-04-03T09:15:15;97662.70;;;0.92;77.36
34205;BME280;20471;49.680;20.074;2023-04-03T09:20:21;97663.80;;;1.00;77.32
34205;BME280;20471;49.680;20.074;2023-04-03T09:22:53;97665.50;;;0.98;77.08
34205;BME280;20471;49.680;20.074;2023-04-03T09:25:31;97662.46;;;1.00;76.93
34205;BME280;20471;49.680;20.074;2023-04-03T09:28:01;97665.73;;;0.97;76.67
34205;BME280;20471;49.680;20.074;2023-04-03T09:30:31;97667.89;;;0.76;76.43
34205;BME280;20471;49.680;20.074;2023-04-03T09:32:59;97670.65;;;0.68;76.65
34205;BME280;20471;49.680;20.074;2023-04-03T09:35:35;97673.04;;;0.72;76.86
34205;BME280;20471;49.680;20.074;2023-04-03T09:38:22;97679.48;;;0.79;77.10
34205;BME280;20471;49.680;20.074;2023-04-03T09:41:29;97684.02;;;0.84;77.12
34205;BME280;20471;49.680;20.074;2023-04-03T09:43:58;97686.59;;;0.90;77.05
34205;BME280;20471;49.680;20.074;2023-04-03T09:46:30;97688.83;;;0.91;76.85
34205;BME280;20471;49.680;20.074;2023-04-03T09:49:02;97692.95;;;0.92;76.70
34205;BME280;20471;49.680;20.074;2023-04-03T09:51:31;97689.14;;;0.99;76.74
34205;BME280;20471;49.680;20.074;2023-04-03T09:53:59;97691.12;;;1.04;76.53
34205;BME280;20471;49.680;20.074;2023-04-03T09:56:29;97691.92;;;1.03;76.31
34205;BME280;20471;49.680;20.074;2023-04-03T10:01:31;97699.07;;;0.86;76.58
34205;BME280;20471;49.680;20.074;2023-04-03T10:04:15;97703.33;;;0.86;76.73
34205;BME280;20471;49.680;20.074;2023-04-03T10:06:49;97704.77;;;0.89;76.99
34205;BME280;20471;49.680;20.074;2023-04-03T10:12:02;97706.04;;;0.93;77.04
34205;BME280;20471;49.680;20.074;2023-04-03T10:14:38;97709.20;;;0.91;77.16
34205;BME280;20471;49.680;20.074;2023-04-03T10:17:37;97714.68;;;0.91;77.33
34205;BME280;20471;49.680;20.074;2023-04-03T10:23:20;97720.84;;;1.05;77.14
34205;BME280;20471;49.680;20.074;2023-04-03T10:31:47;97722.23;;;0.79;76.55
34205;BME280;20471;49.680;20.074;2023-04-03T10:34:32;97719.33;;;0.85;76.34
34205;BME280;20471;49.680;20.074;2023-04-03T10:37:06;97723.21;;;0.93;76.36
34205;BME280;20471;49.680;20.074;2023-04-03T10:42:20;97725.38;;;0.98;76.22
34205;BME280;20471;49.680;20.074;2023-04-03T10:45:10;97720.88;;;0.99;75.84
34205;BME280;20471;49.680;20.074;2023-04-03T10:48:10;97721.26;;;0.89;75.33
34205;BME280;20471;49.680;20.074;2023-04-03T10:51:24;97722.48;;;0.71;75.51
34205;BME280;20471;49.680;20.074;2023-04-03T10:54:04;97726.59;;;0.64;76.04
34205;BME280;20471;49.680;20.074;2023-04-03T10:56:40;97727.77;;;0.69;76.19
34205;BME280;20471;49.680;20.074;2023-04-03T11:02:23;97737.20;;;0.80;76.20
34205;BME280;20471;49.680;20.074;2023-04-03T11:05:15;97739.21;;;0.81;75.95
34205;BME280;20471;49.680;20.074;2023-04-03T11:07:49;97739.84;;;0.67;75.36
34205;BME280;20471;49.680;20.074;2023-04-03T11:10:49;97740.27;;;0.54;75.53
34205;BME280;20471;49.680;20.074;2023-04-03T11:14:04;97743.11;;;0.58;76.09
34205;BME280;20471;49.680;20.074;2023-04-03T11:16:38;97742.01;;;0.53;75.89
34205;BME280;20471;49.680;20.074;2023-04-03T11:19:17;97737.67;;;0.44;75.78
34205;BME280;20471;49.680;20.074;2023-04-03T11:21:55;97735.42;;;0.44;75.99
34205;BME280;20471;49.680;20.074;2023-04-03T11:24:29;97737.59;;;0.53;76.38
34205;BME280;20471;49.680;20.074;2023-04-03T11:27:00;97731.46;;;0.60;76.50
34205;BME280;20471;49.680;20.074;2023-04-03T11:29:34;97737.37;;;0.62;76.45
34205;BME280;20471;49.680;20.074;2023-04-03T11:32:12;97736.42;;;0.67;76.68
34205;BME280;20471;49.680;20.074;2023-04-03T11:34:51;97733.61;;;0.71;76.75
34205;BME280;20471;49.680;20.074;2023-04-03T11:37:38;97733.09;;;0.76;76.84
34205;BME280;20471;49.680;20.074;2023-04-03T11:40:20;97732.16;;;0.79;76.31
34205;BME280;20471;49.680;20.074;2023-04-03T11:42:54;97733.05;;;0.67;76.03
34205;BME280;20471;49.680;20.074;2023-04-03T11:47:56;97739.34;;;0.64;75.89
34205;BME280;20471;49.680;20.074;2023-04-03T11:53:25;97744.58;;;0.61;76.28
34205;BME280;20471;49.680;20.074;2023-04-03T11:55:55;97742.08;;;0.69;75.95
34205;BME280;20471;49.680;20.074;2023-04-03T12:01:08;97741.98;;;0.80;75.59
34205;BME280;20471;49.680;20.074;2023-04-03T12:29:24;97740.26;;;1.03;74.20
34205;BME280;20471;49.680;20.074;2023-04-03T12:40:15;97748.80;;;1.02;72.85
34205;BME280;20471;49.680;20.074;2023-04-03T12:43:02;97751.16;;;0.89;73.31
34205;BME280;20471;49.680;20.074;2023-04-03T12:45:50;97748.50;;;0.95;73.50
34205;BME280;20471;49.680;20.074;2023-04-03T12:48:26;97753.58;;;1.03;73.40
34205;BME280;20471;49.680;20.074;2023-04-03T12:50:56;97751.42;;;1.04;73.32
34205;BME280;20471;49.680;20.074;2023-04-03T12:53:27;97750.60;;;1.07;73.51
34205;BME280;20471;49.680;20.074;2023-04-03T12:58:48;97748.40;;;1.37;73.66
34205;BME280;20471;49.680;20.074;2023-04-03T13:01:22;97744.95;;;1.66;73.82
34205;BME280;20471;49.680;20.074;2023-04-03T13:03:56;97742.86;;;1.76;73.55
34205;BME280;20471;49.680;20.074;2023-04-03T13:06:40;97742.56;;;1.79;72.93
34205;BME280;20471;49.680;20.074;2023-04-03T13:09:38;97739.27;;;1.86;72.63
34205;BME280;20471;49.680;20.074;2023-04-03T13:12:12;97735.88;;;1.87;71.89
34205;BME280;20471;49.680;20.074;2023-04-03T13:14:51;97732.02;;;1.80;72.08
34205;BME280;20471;49.680;20.074;2023-04-03T13:17:23;97726.33;;;1.80;72.14
34205;BME280;20471;49.680;20.074;2023-04-03T13:19:51;97721.79;;;1.70;71.41
34205;BME280;20471;49.680;20.074;2023-04-03T13:22:33;97724.16;;;1.61;71.58
34205;BME280;20471;49.680;20.074;2023-04-03T13:25:07;97724.83;;;1.52;71.71
34205;BME280;20471;49.680;20.074;2023-04-03T13:27:38;97726.52;;;1.49;71.65
34205;BME280;20471;49.680;20.074;2023-04-03T13:30:30;97728.89;;;1.36;71.16
34205;BME280;20471;49.680;20.074;2023-04-03T13:33:03;97732.27;;;1.26;71.36
34205;BME280;20471;49.680;20.074;2023-04-03T13:35:40;97743.86;;;1.18;71.45
34205;BME280;20471;49.680;20.074;2023-04-03T13:38:35;97745.62;;;1.09;71.72
34205;BME280;20471;49.680;20.074;2023-04-03T13:41:23;97745.43;;;1.07;71.55
34205;BME280;20471;49.680;20.074;2023-04-03T13:43:52;97751.32;;;1.29;71.84
34205;BME280;20471;49.680;20.074;2023-04-03T13:46:26;97745.52;;;1.60;71.82
34205;BME280;20471;49.680;20.074;2023-04-03T13:48:56;97742.75;;;1.77;71.04
34205;BME280;20471;49.680;20.074;2023-04-03T13:51:27;97737.41;;;1.81;70.77
34205;BME280;20471;49.680;20.074;2023-04-03T13:54:00;97735.43;;;1.85;70.85
34205;BME280;20471;49.680;20.074;2023-04-03T13:56:36;97734.67;;;1.90;70.50
34205;BME280;20471;49.680;20.074;2023-04-03T14:07:19;97735.68;;;1.87;69.00
34205;BME280;20471;49.680;20.074;2023-04-03T14:09:48;97746.47;;;1.85;68.94
34205;BME280;20471;49.680;20.074;2023-04-03T14:12:30;97745.34;;;1.73;68.61
34205;BME280;20471;49.680;20.074;2023-04-03T14:15:00;97744.97;;;1.64;68.65
34205;BME280;20471;49.680;20.074;2023-04-03T14:17:29;97741.11;;;1.63;68.57
34205;BME280;20471;49.680;20.074;2023-04-03T14:19:58;97744.02;;;1.66;68.81
34205;BME280;20471;49.680;20.074;2023-04-03T14:22:31;97744.56;;;1.71;69.05
34205;BME280;20471;49.680;20.074;2023-04-03T14:25:00;97739.45;;;1.75;68.68
34205;BME280;20471;49.680;20.074;2023-04-03T14:27:40;97738.09;;;1.76;68.56
34205;BME280;20471;49.680;20.074;2023-04-03T14:30:15;97736.73;;;1.90;68.62
34205;BME280;20471;49.680;20.074;2023-04-03T14:32:43;97733.17;;;2.19;68.74
34205;BME280;20471;49.680;20.074;2023-04-03T14:35:12;97734.42;;;2.38;68.56
34205;BME280;20471;49.680;20.074;2023-04-03T14:37:41;97732.62;;;2.44;67.53
34205;BME280;20471;49.680;20.074;2023-04-03T14:40:13;97726.74;;;2.28;67.26
34205;BME280;20471;49.680;20.074;2023-04-03T14:42:42;97726.16;;;2.16;67.22
34205;BME280;20471;49.680;20.074;2023-04-03T14:45:11;97732.42;;;2.27;67.65
34205;BME280;20471;49.680;20.074;2023-04-03T14:47:45;97730.67;;;2.58;67.88
34205;BME280;20471;49.680;20.074;2023-04-03T14:50:20;97728.89;;;2.84;67.82
34205;BME280;20471;49.680;20.074;2023-04-03T14:52:51;97731.48;;;2.87;66.82